Time;durP1;ratioP1;P1;durP2;ratioP2;P2;SDS_P1;SDS_P2;PMS_P1;PMS_P2;Temp;Humidity;BMP_temperature;BMP_pressure;BME280_temperature;BME280_humidity;BME280_pressure;Samples;Min_cycle;Max_cycle;Signal;HPM_P1;HPM_P2
2023/12/26 00:00:39;;;;;;;5.40;3.25;;;7.40;99.90;;;;;;482640;245;28441;-72
2023/12/26 00:02:40;;;;;;;7.17;3.50;;;7.40;99.90;;;;;;492954;240;27567;-73
2023/12/26 00:04:42;;;;;;;4.23;2.83;;;7.40;99.90;;;;;;482637;245;28751;-74
2023/12/26 00:06:46;;;;;;;7.53;3.07;;;7.40;99.90;;;;;;492987;240;27906;-72
2023/12/26 00:08:47;;;;;;;6.77;2.87;;;7.40;99.90;;;;;;482648;245;28290;-72
2023/12/26 00:10:49;;;;;;;7.57;3.40;;;7.40;99.90;;;;;;492976;240;27734;-72
2023/12/26 00:12:50;;;;;;;4.60;3.03;;;7.40;99.90;;;;;;482711;245;28053;-75
2023/12/26 00:14:51;;;;;;;8.70;2.90;;;7.40;99.90;;;;;;492967;240;28286;-72
2023/12/26 00:16:52;;;;;;;6.03;3.30;;;7.40;99.90;;;;;;482711;245;28374;-73
2023/12/26 00:18:54;;;;;;;3.50;3.00;;;7.40;99.90;;;;;;493045;240;28387;-72
2023/12/26 00:20:55;;;;;;;3.50;2.90;;;7.40;99.90;;;;;;482540;245;28479;-72
2023/12/26 00:22:56;;;;;;;9.97;4.13;;;7.40;99.90;;;;;;493055;240;27840;-75
2023/12/26 00:24:57;;;;;;;7.67;3.40;;;7.40;99.90;;;;;;482665;246;27967;-73
2023/12/26 00:26:59;;;;;;;3.00;2.57;;;7.30;99.90;;;;;;493008;240;27949;-72
2023/12/26 00:29:00;;;;;;;6.37;3.80;;;7.40;99.90;;;;;;482690;244;27951;-72
2023/12/26 00:31:01;;;;;;;12.70;3.37;;;7.40;99.90;;;;;;493021;240;27705;-73
2023/12/26 00:33:02;;;;;;;4.57;3.13;;;7.40;99.90;;;;;;482647;245;28787;-73
2023/12/26 00:35:04;;;;;;;4.87;2.90;;;7.40;99.90;;;;;;492999;240;28789;-73
2023/12/26 00:37:05;;;;;;;3.27;2.90;;;7.40;99.90;;;;;;482699;245;28658;-72
2023/12/26 00:39:06;;;;;;;3.73;3.17;;;7.40;99.90;;;;;;493027;240;28800;-72
2023/12/26 00:41:07;;;;;;;5.97;3.23;;;7.40;99.90;;;;;;493017;240;27572;-72
2023/12/26 00:43:09;;;;;;;5.40;3.40;;;7.30;99.90;;;;;;482637;245;28230;-73
2023/12/26 00:45:10;;;;;;;7.93;3.47;;;7.40;99.90;;;;;;492981;240;27447;-72
2023/12/26 00:47:11;;;;;;;6.30;3.50;;;7.40;99.90;;;;;;482586;246;28385;-72
2023/12/26 00:49:13;;;;;;;3.43;3.10;;;7.30;99.90;;;;;;492982;240;28539;-75
2023/12/26 00:51:13;;;;;;;5.47;3.00;;;7.30;99.90;;;;;;482619;245;28189;-72
2023/12/26 00:53:15;;;;;;;5.80;3.30;;;7.40;99.90;;;;;;492873;240;28647;-75
2023/12/26 00:55:16;;;;;;;4.37;3.00;;;7.40;99.90;;;;;;482651;246;29424;-72
2023/12/26 00:57:17;;;;;;;3.90;3.30;;;7.40;99.90;;;;;;492964;240;27497;-73
2023/12/26 00:59:18;;;;;;;4.53;3.03;;;7.30;99.90;;;;;;482710;245;27649;-75
2023/12/26 01:01:20;;;;;;;7.30;3.40;;;7.30;99.90;;;;;;492925;240;27810;-72
2023/12/26 01:03:22;;;;;;;3.40;3.10;;;7.30;99.90;;;;;;482649;244;27919;-73
2023/12/26 01:05:23;;;;;;;4.90;3.00;;;7.30;99.90;;;;;;492977;240;27461;-72
2023/12/26 01:07:23;;;;;;;4.10;3.20;;;7.30;99.90;;;;;;482698;245;27993;-72
2023/12/26 01:09:25;;;;;;;4.03;3.17;;;7.30;99.90;;;;;;493032;240;27796;-75
2023/12/26 01:11:26;;;;;;;3.10;2.63;;;7.30;99.90;;;;;;482708;244;27558;-72
2023/12/26 01:13:34;;;;;;;4.07;2.70;;;7.30;99.90;;;;;;492957;240;27580;-73
2023/12/26 01:15:29;;;;;;;5.50;2.93;;;7.40;99.90;;;;;;482061;246;28066;-72
2023/12/26 01:17:30;;;;;;;2.70;2.50;;;7.30;99.90;;;;;;492992;240;28478;-72
2023/12/26 01:19:31;;;;;;;6.03;2.93;;;7.40;99.90;;;;;;482685;245;28101;-73
2023/12/26 01:21:32;;;;;;;6.90;3.03;;;7.40;99.90;;;;;;492990;240;28606;-72
2023/12/26 01:23:34;;;;;;;4.20;2.90;;;7.30;99.90;;;;;;482636;246;28028;-72
2023/12/26 01:25:35;;;;;;;6.20;3.10;;;7.40;99.90;;;;;;493006;240;28343;-72
2023/12/26 01:27:36;;;;;;;6.97;2.67;;;7.40;99.90;;;;;;482683;245;28478;-72
2023/12/26 01:29:37;;;;;;;6.30;3.20;;;7.40;99.90;;;;;;492970;240;28276;-72
2023/12/26 01:31:38;;;;;;;3.70;2.90;;;7.40;99.90;;;;;;482666;245;27857;-72
2023/12/26 01:33:40;;;;;;;5.43;3.30;;;7.40;99.90;;;;;;492880;240;27606;-72
2023/12/26 01:35:41;;;;;;;9.03;3.30;;;7.40;99.90;;;;;;482709;245;28234;-75
2023/12/26 01:37:42;;;;;;;6.47;2.93;;;7.40;99.90;;;;;;493004;240;27769;-72
2023/12/26 01:39:43;;;;;;;8.50;3.40;;;7.40;99.90;;;;;;482664;245;28446;-72
2023/12/26 01:41:45;;;;;;;8.80;3.53;;;7.40;99.90;;;;;;492962;240;28043;-72
2023/12/26 01:43:46;;;;;;;8.80;3.77;;;7.40;99.90;;;;;;482612;246;27840;-72
2023/12/26 01:45:47;;;;;;;8.23;4.00;;;7.40;99.90;;;;;;493022;240;27875;-74
2023/12/26 01:47:48;;;;;;;14.65;3.78;;;7.40;99.90;;;;;;482677;244;27865;-72
2023/12/26 01:49:50;;;;;;;10.60;3.80;;;7.40;99.90;;;;;;492963;240;27576;-73
2023/12/26 01:51:52;;;;;;;9.70;4.33;;;7.30;99.90;;;;;;482637;245;30207;-72
2023/12/26 01:53:52;;;;;;;11.47;4.00;;;7.40;99.90;;;;;;492917;240;28037;-72
2023/12/26 01:55:54;;;;;;;16.50;4.50;;;7.40;99.90;;;;;;482688;245;29480;-73
2023/12/26 01:57:55;;;;;;;9.90;4.43;;;7.40;99.90;;;;;;492975;240;28122;-72
2023/12/26 01:59:56;;;;;;;10.83;3.60;;;7.40;99.90;;;;;;482627;246;27891;-73
2023/12/26 02:01:58;;;;;;;10.17;5.47;;;7.30;99.90;;;;;;492995;240;27613;-72
2023/12/26 02:03:59;;;;;;;9.67;3.93;;;7.30;99.90;;;;;;482628;245;27869;-72
2023/12/26 02:06:00;;;;;;;10.60;4.40;;;7.40;99.90;;;;;;492986;240;28279;-73
2023/12/26 02:08:01;;;;;;;9.50;4.30;;;7.40;99.90;;;;;;482696;245;27848;-72
2023/12/26 02:10:05;;;;;;;12.43;4.33;;;7.40;99.90;;;;;;493045;240;27925;-72
2023/12/26 02:12:04;;;;;;;12.90;4.30;;;7.40;99.90;;;;;;482505;246;27850;-75
2023/12/26 02:14:05;;;;;;;11.03;4.17;;;7.40;99.90;;;;;;492943;240;27465;-72
2023/12/26 02:16:06;;;;;;;14.83;4.07;;;7.30;99.90;;;;;;482678;245;28044;-72
2023/12/26 02:18:07;;;;;;;12.00;4.40;;;7.40;99.90;;;;;;492941;240;28205;-72
2023/12/26 02:20:09;;;;;;;12.83;4.03;;;7.40;99.90;;;;;;482643;246;28417;-72
2023/12/26 02:22:10;;;;;;;11.17;4.13;;;7.30;99.90;;;;;;492962;234;28449;-74
2023/12/26 02:24:11;;;;;;;10.67;3.90;;;7.30;99.90;;;;;;482457;245;27828;-72
2023/12/26 02:26:12;;;;;;;8.33;3.47;;;7.30;99.90;;;;;;492957;240;27852;-72
2023/12/26 02:28:14;;;;;;;17.20;4.63;;;7.30;99.90;;;;;;482662;245;28102;-73
2023/12/26 02:30:15;;;;;;;11.97;3.63;;;7.30;99.90;;;;;;492969;240;27938;-72
2023/12/26 02:32:16;;;;;;;11.60;4.13;;;7.30;99.90;;;;;;482630;245;28013;-73
2023/12/26 02:34:17;;;;;;;6.40;3.30;;;7.30;99.90;;;;;;492882;240;27496;-72
2023/12/26 02:36:19;;;;;;;6.40;3.87;;;7.30;99.90;;;;;;482644;246;28236;-72
2023/12/26 02:38:20;;;;;;;9.07;3.70;;;7.30;99.90;;;;;;493019;240;27828;-73
2023/12/26 02:40:21;;;;;;;15.63;3.83;;;7.30;99.90;;;;;;482677;246;27728;-72
2023/12/26 02:42:24;;;;;;;8.60;4.23;;;7.30;99.90;;;;;;492972;240;27960;-73
2023/12/26 02:44:24;;;;;;;22.70;4.53;;;7.30;99.90;;;;;;482439;246;28294;-72
2023/12/26 02:46:25;;;;;;;9.60;3.40;;;7.40;99.90;;;;;;492993;240;27924;-72
2023/12/26 02:48:26;;;;;;;12.07;4.33;;;7.30;99.90;;;;;;482657;245;28378;-73
2023/12/26 02:50:27;;;;;;;11.30;3.60;;;7.30;99.90;;;;;;492974;240;28517;-76
2023/12/26 02:52:29;;;;;;;9.90;3.93;;;7.30;99.90;;;;;;482633;245;27781;-72
2023/12/26 02:54:30;;;;;;;26.10;5.12;;;7.40;99.90;;;;;;492918;240;27833;-73
2023/12/26 02:56:31;;;;;;;15.07;3.60;;;7.40;99.90;;;;;;482685;245;27386;-72
2023/12/26 02:58:33;;;;;;;15.47;4.03;;;7.40;99.90;;;;;;492983;240;28755;-72
2023/12/26 03:00:34;;;;;;;15.90;3.80;;;7.40;99.90;;;;;;482633;245;27625;-72
2023/12/26 03:02:35;;;;;;;8.77;3.73;;;7.40;99.90;;;;;;492931;240;28165;-72
2023/12/26 03:04:36;;;;;;;8.43;3.10;;;7.40;99.90;;;;;;482573;245;28791;-75
2023/12/26 03:06:37;;;;;;;12.13;3.65;;;7.40;99.90;;;;;;492987;240;27864;-73
2023/12/26 03:08:39;;;;;;;11.73;3.50;;;7.40;99.90;;;;;;482634;246;27922;-73
2023/12/26 03:10:40;;;;;;;10.90;3.97;;;7.40;99.90;;;;;;492936;240;28470;-72
2023/12/26 03:12:41;;;;;;;9.60;3.47;;;7.40;99.90;;;;;;482644;245;27889;-72
2023/12/26 03:14:42;;;;;;;9.33;3.30;;;7.30;99.90;;;;;;492928;240;27839;-75
2023/12/26 03:16:44;;;;;;;18.30;4.00;;;7.30;99.90;;;;;;482652;245;27937;-72
2023/12/26 03:18:45;;;;;;;12.43;3.20;;;7.30;99.90;;;;;;492963;240;27943;-73
2023/12/26 03:20:46;;;;;;;8.00;3.70;;;7.30;99.90;;;;;;482651;245;27606;-72
2023/12/26 03:22:47;;;;;;;17.40;3.50;;;7.30;99.90;;;;;;492975;240;27974;-72
2023/12/26 03:24:49;;;;;;;14.07;3.60;;;7.30;99.90;;;;;;482596;245;28478;-73
2023/12/26 03:26:50;;;;;;;12.83;4.37;;;7.30;99.90;;;;;;492972;240;28466;-71
2023/12/26 03:28:51;;;;;;;11.67;3.63;;;7.40;99.90;;;;;;492967;240;27508;-72
2023/12/26 03:30:52;;;;;;;12.27;3.40;;;7.40;99.90;;;;;;482631;245;27911;-72
2023/12/26 03:32:54;;;;;;;11.50;3.57;;;7.40;99.90;;;;;;492969;240;28731;-72
2023/12/26 03:34:55;;;;;;;16.30;3.40;;;7.40;99.90;;;;;;482559;245;28417;-73
2023/12/26 03:36:56;;;;;;;12.97;3.57;;;7.40;99.90;;;;;;492944;240;28485;-72
2023/12/26 03:38:57;;;;;;;9.87;3.17;;;7.40;99.90;;;;;;482627;246;28956;-72
2023/12/26 03:40:59;;;;;;;12.80;3.37;;;7.40;99.90;;;;;;492971;240;27388;-75
2023/12/26 03:43:00;;;;;;;11.43;4.30;;;7.40;99.90;;;;;;482644;246;27905;-72
2023/12/26 03:45:01;;;;;;;14.33;3.73;;;7.40;99.90;;;;;;492986;240;27625;-73
2023/12/26 03:47:02;;;;;;;16.07;3.63;;;7.40;99.90;;;;;;482635;245;27850;-72
2023/12/26 03:49:04;;;;;;;7.85;3.17;;;7.40;99.90;;;;;;493002;240;27815;-72
2023/12/26 03:51:05;;;;;;;11.03;3.50;;;7.40;99.90;;;;;;482702;246;27577;-73
2023/12/26 03:53:06;;;;;;;11.63;3.70;;;7.30;99.90;;;;;;492928;239;28789;-72
2023/12/26 03:55:08;;;;;;;7.40;3.20;;;7.30;99.90;;;;;;482661;245;27998;-72
2023/12/26 03:57:09;;;;;;;14.13;3.50;;;7.30;99.90;;;;;;492945;240;28886;-72
2023/12/26 03:59:10;;;;;;;13.17;3.60;;;7.30;99.90;;;;;;482719;246;28397;-72
2023/12/26 04:01:11;;;;;;;12.37;3.73;;;7.30;99.90;;;;;;493019;240;28108;-72
2023/12/26 04:03:13;;;;;;;7.67;2.93;;;7.30;99.90;;;;;;482648;246;28348;-72
2023/12/26 04:05:14;;;;;;;9.43;3.17;;;7.30;99.90;;;;;;493003;240;28024;-72
2023/12/26 04:07:15;;;;;;;11.77;3.43;;;7.30;99.90;;;;;;482696;245;28022;-72
2023/12/26 04:09:18;;;;;;;9.07;3.30;;;7.30;99.90;;;;;;492985;240;27747;-72
2023/12/26 04:11:17;;;;;;;17.50;3.92;;;7.30;99.90;;;;;;482558;246;27750;-72
2023/12/26 04:13:19;;;;;;;8.87;2.90;;;7.30;99.90;;;;;;492882;240;27446;-72
2023/12/26 04:15:20;;;;;;;11.97;3.07;;;7.40;99.90;;;;;;482624;244;27781;-72
2023/12/26 04:17:21;;;;;;;10.27;3.30;;;7.40;99.90;;;;;;493025;240;28284;-73
2023/12/26 04:19:24;;;;;;;13.60;3.97;;;7.40;99.90;;;;;;482682;246;27969;-72
2023/12/26 04:21:24;;;;;;;10.10;3.07;;;7.40;99.90;;;;;;492909;240;27806;-72
2023/12/26 04:23:25;;;;;;;17.27;4.00;;;7.40;99.90;;;;;;482600;245;27423;-73
2023/12/26 04:25:26;;;;;;;7.23;2.87;;;7.40;99.90;;;;;;492935;240;27604;-72
2023/12/26 04:27:27;;;;;;;11.97;3.37;;;7.40;99.90;;;;;;482687;245;27547;-73
2023/12/26 04:29:29;;;;;;;10.70;3.40;;;7.40;99.90;;;;;;493006;240;27893;-72
2023/12/26 04:31:30;;;;;;;12.07;3.20;;;7.40;99.90;;;;;;482606;246;28541;-72
2023/12/26 04:33:31;;;;;;;16.40;3.87;;;7.40;99.90;;;;;;492917;240;29220;-72
2023/12/26 04:35:32;;;;;;;9.43;3.57;;;7.50;99.90;;;;;;482681;245;28181;-72
2023/12/26 04:37:34;;;;;;;9.43;3.50;;;7.40;99.90;;;;;;493025;240;28226;-72
2023/12/26 04:39:35;;;;;;;15.80;3.63;;;7.50;99.90;;;;;;482663;246;28447;-72
2023/12/26 04:41:36;;;;;;;9.83;3.63;;;7.50;99.90;;;;;;492969;240;27897;-71
2023/12/26 04:43:37;;;;;;;12.60;3.20;;;7.50;99.90;;;;;;482649;245;27979;-74
2023/12/26 04:45:39;;;;;;;12.27;3.53;;;7.50;99.90;;;;;;493003;240;27823;-72
2023/12/26 04:47:40;;;;;;;21.47;3.50;;;7.50;99.90;;;;;;482676;244;28103;-73
2023/12/26 04:49:41;;;;;;;7.87;3.40;;;7.50;99.90;;;;;;492985;240;27750;-72
2023/12/26 04:51:42;;;;;;;13.40;3.90;;;7.50;99.90;;;;;;482668;244;27782;-72
2023/12/26 04:53:44;;;;;;;9.37;3.30;;;7.50;99.90;;;;;;492948;240;27873;-74
2023/12/26 04:55:45;;;;;;;10.87;3.23;;;7.50;99.90;;;;;;482673;245;27866;-72
2023/12/26 04:57:46;;;;;;;17.53;3.10;;;7.50;99.90;;;;;;492977;240;27666;-72
2023/12/26 04:59:47;;;;;;;16.20;3.50;;;7.50;99.90;;;;;;482638;246;28360;-72
2023/12/26 05:01:49;;;;;;;13.17;3.23;;;7.50;99.90;;;;;;492978;240;29028;-72
2023/12/26 05:03:50;;;;;;;18.87;3.20;;;7.50;99.90;;;;;;482650;245;28485;-74
2023/12/26 05:05:51;;;;;;;8.03;3.00;;;7.50;99.90;;;;;;493004;240;29301;-72
2023/12/26 05:07:52;;;;;;;9.93;3.57;;;7.50;99.90;;;;;;492988;240;27715;-72
2023/12/26 05:09:54;;;;;;;14.60;3.70;;;7.50;99.90;;;;;;482676;246;27881;-72
2023/12/26 05:11:55;;;;;;;14.07;3.40;;;7.50;99.90;;;;;;492995;240;27856;-72
2023/12/26 05:13:56;;;;;;;9.90;3.13;;;7.50;99.90;;;;;;482618;245;28001;-73
2023/12/26 05:15:57;;;;;;;8.33;3.10;;;7.50;99.90;;;;;;492997;240;27920;-72
2023/12/26 05:17:59;;;;;;;7.83;3.10;;;7.50;99.90;;;;;;492950;240;27923;-72
2023/12/26 05:20:01;;;;;;;12.23;3.70;;;7.50;99.90;;;;;;482669;245;28263;-71
2023/12/26 05:22:01;;;;;;;12.93;3.80;;;7.40;99.90;;;;;;492960;241;27360;-72
2023/12/26 05:24:02;;;;;;;11.10;3.73;;;7.50;99.90;;;;;;492903;240;27823;-72
2023/12/26 05:26:04;;;;;;;5.23;2.70;;;7.50;99.90;;;;;;482656;245;27884;-72
2023/12/26 05:28:05;;;;;;;13.60;3.70;;;7.50;99.90;;;;;;492954;240;27860;-72
2023/12/26 05:30:06;;;;;;;8.93;3.03;;;7.40;99.90;;;;;;482661;246;28617;-75
2023/12/26 05:32:08;;;;;;;12.77;3.63;;;7.40;99.90;;;;;;492959;240;27990;-71
2023/12/26 05:34:09;;;;;;;12.97;3.33;;;7.40;99.90;;;;;;482633;246;28564;-72
2023/12/26 05:36:10;;;;;;;10.20;3.10;;;7.40;99.90;;;;;;492950;240;28520;-72
2023/12/26 05:38:11;;;;;;;16.70;3.53;;;7.40;99.90;;;;;;492992;240;27799;-73
2023/12/26 05:40:12;;;;;;;10.43;3.30;;;7.30;99.90;;;;;;482673;245;27882;-74
2023/12/26 05:42:14;;;;;;;14.43;4.13;;;7.30;99.90;;;;;;492965;240;27868;-72
2023/12/26 05:44:15;;;;;;;10.83;3.70;;;7.40;99.90;;;;;;482573;245;27983;-73
2023/12/26 05:46:17;;;;;;;8.43;3.27;;;7.40;99.90;;;;;;492983;240;28045;-72
2023/12/26 05:48:17;;;;;;;7.10;3.10;;;7.40;99.90;;;;;;482668;244;28663;-72
2023/12/26 05:50:19;;;;;;;11.70;3.50;;;7.40;99.90;;;;;;492989;240;27874;-72
2023/12/26 05:52:20;;;;;;;11.53;3.60;;;7.40;99.90;;;;;;482639;246;27827;-72
2023/12/26 05:54:21;;;;;;;12.33;3.60;;;7.40;99.90;;;;;;492928;240;28022;-72
2023/12/26 05:56:23;;;;;;;12.73;3.70;;;7.40;99.90;;;;;;482669;245;28159;-74
2023/12/26 05:58:24;;;;;;;17.80;4.03;;;7.40;99.90;;;;;;492966;240;28262;-72
2023/12/26 06:00:25;;;;;;;16.47;3.33;;;7.40;99.90;;;;;;482658;246;28482;-72
2023/12/26 06:02:26;;;;;;;6.90;3.00;;;7.40;99.90;;;;;;492971;240;28280;-72
2023/12/26 06:04:28;;;;;;;14.20;3.60;;;7.40;99.90;;;;;;482556;245;28588;-72
2023/12/26 06:06:29;;;;;;;10.50;3.47;;;7.30;99.90;;;;;;492998;240;27503;-75
2023/12/26 06:08:30;;;;;;;9.67;2.73;;;7.40;99.90;;;;;;482661;246;27890;-72
2023/12/26 06:10:31;;;;;;;10.87;3.03;;;7.30;99.90;;;;;;492980;240;27967;-72
2023/12/26 06:12:33;;;;;;;11.90;3.30;;;7.30;99.90;;;;;;482619;245;27860;-72
2023/12/26 06:14:34;;;;;;;7.03;3.03;;;7.30;99.90;;;;;;492953;240;27708;-72
2023/12/26 06:16:35;;;;;;;17.40;4.07;;;7.30;99.90;;;;;;493013;240;27740;-73
2023/12/26 06:18:36;;;;;;;11.83;4.03;;;7.30;99.90;;;;;;482657;245;27973;-72
2023/12/26 06:20:38;;;;;;;9.65;3.70;;;7.30;99.90;;;;;;492992;240;28434;-72
2023/12/26 06:22:39;;;;;;;17.10;4.67;;;7.30;99.90;;;;;;482693;246;28599;-72
2023/12/26 06:24:40;;;;;;;17.37;4.30;;;7.30;99.90;;;;;;492944;240;28049;-72
2023/12/26 06:26:41;;;;;;;12.57;3.20;;;7.30;99.90;;;;;;482689;245;28633;-73
2023/12/26 06:28:43;;;;;;;13.43;3.77;;;7.30;99.90;;;;;;492975;238;28476;-72
2023/12/26 06:30:44;;;;;;;15.03;4.50;;;7.30;99.90;;;;;;482653;246;28873;-72
2023/12/26 06:32:45;;;;;;;10.40;3.50;;;7.30;99.90;;;;;;493026;240;27792;-73
2023/12/26 06:34:46;;;;;;;15.07;3.60;;;7.30;99.90;;;;;;492984;241;27815;-72
2023/12/26 06:36:48;;;;;;;16.17;4.00;;;7.20;99.90;;;;;;492995;240;27384;-72
2023/12/26 06:38:49;;;;;;;11.13;4.30;;;7.20;99.90;;;;;;482669;245;27846;-72
2023/12/26 06:40:50;;;;;;;15.20;4.63;;;7.20;99.90;;;;;;493009;240;27985;-72
2023/12/26 06:42:51;;;;;;;9.03;3.50;;;7.20;99.90;;;;;;482679;245;27974;-74
2023/12/26 06:44:53;;;;;;;13.53;3.90;;;7.20;99.90;;;;;;492828;240;27894;-73
2023/12/26 06:46:54;;;;;;;15.27;4.33;;;7.20;99.90;;;;;;482596;245;28372;-72
2023/12/26 06:48:55;;;;;;;12.23;3.70;;;7.20;99.90;;;;;;492939;240;28096;-72
2023/12/26 06:50:56;;;;;;;11.77;4.30;;;7.20;99.90;;;;;;482668;244;28394;-72
2023/12/26 06:52:58;;;;;;;17.00;4.10;;;7.20;99.90;;;;;;492970;240;28467;-74
2023/12/26 06:54:59;;;;;;;16.37;4.43;;;7.10;99.90;;;;;;482615;245;27951;-72
2023/12/26 06:57:06;;;;;;;10.10;3.73;;;7.20;99.90;;;;;;492927;240;27500;-73
2023/12/26 06:59:01;;;;;;;14.80;4.27;;;7.20;99.90;;;;;;482043;246;27981;-72
2023/12/26 07:01:03;;;;;;;9.63;3.90;;;7.10;99.90;;;;;;492984;240;28687;-72
2023/12/26 07:03:04;;;;;;;13.73;4.33;;;7.10;99.90;;;;;;482605;245;28017;-73
2023/12/26 07:05:05;;;;;;;15.00;3.83;;;7.10;99.90;;;;;;492978;240;28023;-72
2023/12/26 07:07:06;;;;;;;15.60;4.33;;;7.10;99.90;;;;;;482653;246;27620;-73
2023/12/26 07:09:08;;;;;;;13.17;3.63;;;7.10;99.90;;;;;;493031;240;27996;-75
2023/12/26 07:11:09;;;;;;;11.67;3.63;;;7.10;99.90;;;;;;482671;244;28423;-72
2023/12/26 07:13:10;;;;;;;11.43;3.93;;;7.10;99.90;;;;;;492925;241;29078;-73
2023/12/26 07:15:11;;;;;;;5.80;3.20;;;7.10;99.90;;;;;;482665;245;29187;-72
2023/12/26 07:17:13;;;;;;;11.05;3.55;;;7.10;99.90;;;;;;492935;240;28333;-73
2023/12/26 07:19:14;;;;;;;5.33;3.30;;;7.10;99.90;;;;;;482694;245;27421;-72
2023/12/26 07:21:17;;;;;;;7.73;3.37;;;7.10;99.90;;;;;;492973;240;27485;-72
2023/12/26 07:23:16;;;;;;;11.30;3.70;;;7.10;99.90;;;;;;482512;245;28782;-72
2023/12/26 07:25:18;;;;;;;12.33;3.97;;;7.10;99.90;;;;;;492977;240;27488;-72
2023/12/26 07:27:19;;;;;;;8.17;2.90;;;7.10;99.90;;;;;;482652;245;28551;-72
2023/12/26 07:29:21;;;;;;;20.50;3.90;;;7.10;99.90;;;;;;492995;240;28784;-73
2023/12/26 07:31:22;;;;;;;16.13;3.13;;;7.10;99.90;;;;;;482571;246;28576;-72
2023/12/26 07:33:23;;;;;;;12.30;3.80;;;7.10;99.90;;;;;;492936;240;29289;-72
2023/12/26 07:35:25;;;;;;;12.00;3.63;;;7.10;99.90;;;;;;482699;246;28878;-75
2023/12/26 07:37:25;;;;;;;10.20;3.53;;;7.10;99.90;;;;;;492967;240;29347;-72
2023/12/26 07:39:27;;;;;;;9.17;3.47;;;7.10;99.90;;;;;;482666;245;27497;-72
2023/12/26 07:41:28;;;;;;;11.23;3.57;;;7.10;99.90;;;;;;492930;240;28353;-72
2023/12/26 07:43:29;;;;;;;12.23;3.70;;;7.00;99.90;;;;;;482591;244;28789;-72
2023/12/26 07:45:30;;;;;;;8.83;3.37;;;7.00;99.90;;;;;;493006;240;28708;-73
2023/12/26 07:47:32;;;;;;;10.87;3.73;;;7.00;99.90;;;;;;482662;246;27866;-72
2023/12/26 07:49:33;;;;;;;8.20;3.83;;;7.00;99.90;;;;;;492955;240;28805;-73
2023/12/26 07:51:34;;;;;;;6.70;3.40;;;7.10;99.90;;;;;;482626;246;27914;-72
2023/12/26 07:53:35;;;;;;;7.80;4.63;;;7.00;99.90;;;;;;492915;240;27938;-72
2023/12/26 07:55:36;;;;;;;10.53;3.60;;;7.10;99.90;;;;;;482627;245;27902;-73
2023/12/26 07:57:38;;;;;;;11.35;3.53;;;7.00;99.90;;;;;;492919;240;29291;-72
2023/12/26 07:59:39;;;;;;;6.87;3.50;;;7.10;99.90;;;;;;482658;245;27989;-72
2023/12/26 08:01:40;;;;;;;9.43;3.40;;;7.10;99.90;;;;;;492983;240;27368;-72
2023/12/26 08:03:41;;;;;;;8.52;3.00;;;7.10;99.90;;;;;;482609;244;28715;-72
2023/12/26 08:05:43;;;;;;;9.50;3.42;;;7.10;99.90;;;;;;492973;240;27597;-73
2023/12/26 08:07:44;;;;;;;13.37;3.00;;;7.10;99.90;;;;;;482524;245;27430;-72
2023/12/26 08:09:45;;;;;;;7.03;3.13;;;7.10;99.90;;;;;;492933;240;27826;-73
2023/12/26 08:11:46;;;;;;;8.23;3.00;;;7.10;99.90;;;;;;482640;246;28774;-75
2023/12/26 08:13:48;;;;;;;9.00;3.10;;;7.10;99.90;;;;;;492949;240;28139;-72
2023/12/26 08:15:49;;;;;;;5.62;2.70;;;7.10;99.90;;;;;;482640;245;29231;-72
2023/12/26 08:17:51;;;;;;;12.13;3.00;;;7.00;99.90;;;;;;492919;240;27804;-72
2023/12/26 08:19:51;;;;;;;3.57;2.53;;;7.10;99.90;;;;;;482549;246;27514;-72
2023/12/26 08:21:53;;;;;;;3.40;2.50;;;7.10;99.90;;;;;;492944;240;28023;-75
2023/12/26 08:23:54;;;;;;;7.15;2.85;;;7.00;99.90;;;;;;482568;246;27846;-72
2023/12/26 08:25:55;;;;;;;9.30;2.70;;;7.00;99.90;;;;;;492900;240;27543;-73
2023/12/26 08:27:57;;;;;;;7.23;2.57;;;7.10;99.90;;;;;;482640;245;27386;-72
2023/12/26 08:29:58;;;;;;;4.90;2.53;;;7.10;99.90;;;;;;492993;240;27501;-72
2023/12/26 08:31:59;;;;;;;5.00;2.43;;;7.10;99.90;;;;;;482643;244;28846;-73
2023/12/26 08:34:00;;;;;;;4.47;1.70;;;7.10;99.90;;;;;;492918;240;28898;-72
2023/12/26 08:36:02;;;;;;;3.33;2.03;;;7.10;99.90;;;;;;482571;246;28469;-72
2023/12/26 08:38:03;;;;;;;2.67;2.30;;;7.10;99.90;;;;;;493025;240;28700;-75
2023/12/26 08:40:04;;;;;;;5.33;2.20;;;7.20;99.90;;;;;;482681;244;27994;-72
2023/12/26 08:42:05;;;;;;;2.90;2.17;;;7.20;99.90;;;;;;493008;240;28572;-73
2023/12/26 08:44:07;;;;;;;4.50;2.33;;;7.20;99.90;;;;;;482629;246;28244;-72
2023/12/26 08:46:08;;;;;;;2.87;2.20;;;7.20;99.90;;;;;;492995;240;28458;-72
2023/12/26 08:48:09;;;;;;;4.40;2.00;;;7.20;99.90;;;;;;482707;246;28279;-74
2023/12/26 08:50:10;;;;;;;5.60;2.00;;;7.20;99.90;;;;;;492992;240;28456;-72
2023/12/26 08:52:13;;;;;;;2.80;2.10;;;7.20;99.90;;;;;;482658;246;28746;-72
2023/12/26 08:54:14;;;;;;;2.40;1.83;;;7.20;99.90;;;;;;492867;241;27445;-73
2023/12/26 08:56:14;;;;;;;2.63;1.90;;;7.20;99.90;;;;;;492926;241;27787;-72
2023/12/26 08:58:15;;;;;;;3.40;2.40;;;7.30;99.90;;;;;;493045;240;27878;-73
2023/12/26 09:00:17;;;;;;;2.47;2.20;;;7.30;99.90;;;;;;482680;246;28817;-72
2023/12/26 09:02:18;;;;;;;4.83;2.07;;;7.30;99.90;;;;;;492992;240;27964;-73
2023/12/26 09:04:19;;;;;;;1.80;1.70;;;7.30;99.90;;;;;;482670;246;27974;-75
2023/12/26 09:06:20;;;;;;;4.57;2.23;;;7.30;99.90;;;;;;493025;240;27817;-73
2023/12/26 09:08:22;;;;;;;3.30;2.47;;;7.30;99.90;;;;;;482690;246;28491;-72
2023/12/26 09:10:23;;;;;;;4.27;2.37;;;7.20;99.90;;;;;;492984;240;28146;-72
2023/12/26 09:12:24;;;;;;;3.73;1.97;;;7.30;99.90;;;;;;482668;244;28087;-72
2023/12/26 09:14:25;;;;;;;4.43;2.40;;;7.20;99.90;;;;;;493009;240;29277;-74
2023/12/26 09:16:27;;;;;;;2.78;1.87;;;7.20;99.90;;;;;;482730;246;28317;-72
2023/12/26 09:18:28;;;;;;;3.77;2.23;;;7.30;99.90;;;;;;493013;240;27583;-73
2023/12/26 09:20:29;;;;;;;2.67;2.20;;;7.30;99.90;;;;;;482711;246;27941;-72
2023/12/26 09:22:30;;;;;;;3.30;2.03;;;7.30;99.90;;;;;;493055;240;27429;-72
2023/12/26 09:24:32;;;;;;;2.60;2.10;;;7.30;99.90;;;;;;482677;246;28006;-73
2023/12/26 09:26:33;;;;;;;2.70;2.10;;;7.30;99.90;;;;;;493004;240;27459;-72
2023/12/26 09:28:34;;;;;;;2.73;1.90;;;7.30;99.90;;;;;;482614;245;28069;-72
2023/12/26 09:30:35;;;;;;;4.73;2.23;;;7.30;99.90;;;;;;493023;240;29694;-75
2023/12/26 09:32:37;;;;;;;3.93;1.70;;;7.40;99.90;;;;;;482646;246;28316;-72
2023/12/26 09:34:38;;;;;;;5.87;2.03;;;7.40;99.90;;;;;;492971;240;28447;-72
2023/12/26 09:36:39;;;;;;;3.57;2.20;;;7.40;99.90;;;;;;482673;246;27977;-72
2023/12/26 09:38:42;;;;;;;3.70;2.00;;;7.40;99.90;;;;;;492967;240;29176;-72
2023/12/26 09:40:42;;;;;;;2.10;1.60;;;7.40;99.90;;;;;;482633;245;27881;-75
2023/12/26 09:42:43;;;;;;;2.13;1.90;;;7.40;99.90;;;;;;493011;240;27891;-73
2023/12/26 09:44:44;;;;;;;2.43;1.90;;;7.40;99.90;;;;;;482653;245;28028;-73
2023/12/26 09:46:45;;;;;;;2.50;1.70;;;7.40;99.90;;;;;;492982;240;28426;-72
2023/12/26 09:48:47;;;;;;;4.03;2.00;;;7.30;99.90;;;;;;482659;245;28091;-73
2023/12/26 09:50:48;;;;;;;4.77;2.13;;;7.40;99.90;;;;;;493030;240;27994;-74
2023/12/26 09:52:49;;;;;;;1.97;1.87;;;7.40;99.90;;;;;;482659;244;27536;-72
2023/12/26 09:54:50;;;;;;;6.17;2.10;;;7.40;99.90;;;;;;492898;240;27955;-73
2023/12/26 09:56:52;;;;;;;2.73;1.63;;;7.40;99.90;;;;;;482638;246;27973;-74
2023/12/26 09:58:53;;;;;;;5.30;2.37;;;7.30;99.90;;;;;;492996;240;27828;-72
2023/12/26 10:00:54;;;;;;;2.60;2.10;;;7.30;99.90;;;;;;482681;245;28042;-73
2023/12/26 10:02:55;;;;;;;3.47;1.67;;;7.40;99.90;;;;;;492952;240;28454;-72
2023/12/26 10:04:57;;;;;;;2.63;2.33;;;7.40;99.90;;;;;;492950;240;28199;-72
2023/12/26 10:06:58;;;;;;;3.67;2.20;;;7.40;99.90;;;;;;482667;245;28534;-75
2023/12/26 10:09:00;;;;;;;3.63;2.07;;;7.40;99.90;;;;;;492999;240;28471;-74
2023/12/26 10:11:00;;;;;;;5.70;2.63;;;7.40;99.90;;;;;;482615;246;28473;-72
2023/12/26 10:13:02;;;;;;;2.57;2.33;;;7.40;99.90;;;;;;492998;240;27878;-72
2023/12/26 10:15:03;;;;;;;3.43;1.90;;;7.40;99.90;;;;;;482696;244;27924;-72
2023/12/26 10:17:04;;;;;;;3.20;2.33;;;7.40;99.90;;;;;;493024;240;28424;-76
2023/12/26 10:19:05;;;;;;;4.23;2.47;;;7.40;99.90;;;;;;482663;244;27375;-72
2023/12/26 10:21:07;;;;;;;2.53;2.20;;;7.30;99.90;;;;;;492924;240;28874;-72
2023/12/26 10:23:08;;;;;;;2.10;1.60;;;7.40;99.90;;;;;;482615;246;28019;-72
2023/12/26 10:25:09;;;;;;;3.77;2.27;;;7.30;99.90;;;;;;492990;240;28715;-72
2023/12/26 10:27:10;;;;;;;5.00;2.20;;;7.40;99.90;;;;;;482637;245;27958;-74
2023/12/26 10:29:12;;;;;;;3.47;2.23;;;7.40;99.90;;;;;;492973;240;28320;-72
2023/12/26 10:31:18;;;;;;;3.40;2.23;;;7.40;99.90;;;;;;482635;244;28270;-72
2023/12/26 10:33:14;;;;;;;3.00;2.10;;;7.40;99.90;;;;;;492425;241;28040;-75
2023/12/26 10:35:15;;;;;;;2.83;1.90;;;7.50;99.90;;;;;;492991;241;28372;-72